createdAt,value
2019-03-23T00:00:11.652Z,14.43
2019-03-23T00:05:15.871Z,14.47
2019-03-23T00:10:18.528Z,14.45
2019-03-23T00:15:21.132Z,14.45
2019-03-23T00:20:23.696Z,14.46
2019-03-23T00:25:26.262Z,14.37
2019-03-23T00:30:28.849Z,14.22
2019-03-23T00:35:31.429Z,14.22
2019-03-23T00:40:33.993Z,14.22
2019-03-23T00:45:36.609Z,14.22
2019-03-23T00:50:39.227Z,14.19
2019-03-23T00:55:41.894Z,14.18
2019-03-23T01:00:44.458Z,14.09
2019-03-23T01:05:47.015Z,14.03
2019-03-23T01:10:49.494Z,14.01
2019-03-23T01:15:52.068Z,13.95
2019-03-23T01:20:54.664Z,13.84
2019-03-23T01:25:59.074Z,13.74
2019-03-23T01:31:01.651Z,13.69
2019-03-23T01:36:04.268Z,13.63
2019-03-23T01:41:06.861Z,13.58
2019-03-23T01:46:09.481Z,13.54
2019-03-23T01:51:12.149Z,13.46
2019-03-23T01:56:14.900Z,13.40
2019-03-23T02:01:17.550Z,13.36
2019-03-23T02:06:20.175Z,13.26
2019-03-23T02:11:22.726Z,13.26
2019-03-23T02:16:25.373Z,13.23
2019-03-23T02:21:28.037Z,13.13
2019-03-23T02:26:30.659Z,13.10
2019-03-23T02:31:33.279Z,13.03
2019-03-23T02:36:35.867Z,13.00
2019-03-23T02:41:38.507Z,13.08
2019-03-23T02:46:41.067Z,13.04
2019-03-23T02:51:43.570Z,13.04
2019-03-23T02:56:46.208Z,12.99
2019-03-23T03:01:49.821Z,12.97
2019-03-23T03:06:52.460Z,12.93
2019-03-23T03:11:54.998Z,12.81
2019-03-23T03:16:57.566Z,12.76
2019-03-23T03:22:00.228Z,12.77
2019-03-23T03:27:02.986Z,12.81
2019-03-23T03:32:05.630Z,12.74
2019-03-23T03:37:09.444Z,12.68
2019-03-23T03:42:12.053Z,12.67
2019-03-23T03:47:14.560Z,12.48
2019-03-23T03:52:17.231Z,12.38
2019-03-23T03:57:19.861Z,12.25
2019-03-23T04:02:22.474Z,12.41
2019-03-23T04:07:25.068Z,12.42
2019-03-23T04:12:27.726Z,12.36
2019-03-23T04:17:32.224Z,12.24
2019-03-23T04:22:36.713Z,12.24
2019-03-23T04:27:39.304Z,12.23
2019-03-23T04:32:41.911Z,12.15
2019-03-23T04:37:44.469Z,12.15
2019-03-23T04:42:47.073Z,12.04
2019-03-23T04:47:51.485Z,12.13
2019-03-23T04:52:55.584Z,11.99
2019-03-23T04:57:58.223Z,12.00
2019-03-23T05:03:00.836Z,11.91
2019-03-23T05:08:03.460Z,11.86
2019-03-23T05:13:06.088Z,11.74
2019-03-23T05:18:08.703Z,11.81
2019-03-23T05:23:11.332Z,11.83
2019-03-23T05:28:13.825Z,11.90
2019-03-23T05:33:16.389Z,11.91
2019-03-23T05:38:18.998Z,11.93
2019-03-23T05:43:21.640Z,11.96
2019-03-23T05:48:28.765Z,11.97
2019-03-23T05:53:32.113Z,12.00
2019-03-23T05:58:34.803Z,11.95
2019-03-23T06:03:37.377Z,11.93
2019-03-23T06:08:40.020Z,11.98
2019-03-23T06:13:42.691Z,12.07
2019-03-23T06:18:45.362Z,12.13
2019-03-23T06:23:47.945Z,12.25
2019-03-23T06:28:50.618Z,12.38
2019-03-23T06:33:53.332Z,12.60
2019-03-23T06:39:05.060Z,13.62
2019-03-23T06:44:00.642Z,14.58
2019-03-23T06:49:04.930Z,14.87
2019-03-23T06:54:07.601Z,15.20
2019-03-23T06:59:10.229Z,15.75
2019-03-23T07:04:12.869Z,16.22
2019-03-23T07:09:16.485Z,16.74
2019-03-23T07:14:21.553Z,17.32
2019-03-23T07:19:24.127Z,17.75
2019-03-23T07:24:26.740Z,18.24
2019-03-23T07:29:29.321Z,18.78
2019-03-23T07:34:31.926Z,19.09
2019-03-23T07:39:34.553Z,19.61
2019-03-23T07:44:37.177Z,20.15
2019-03-23T07:49:39.843Z,21.25
2019-03-23T07:54:42.435Z,21.87
2019-03-23T07:59:45.061Z,22.32
2019-03-23T08:04:47.734Z,22.74
2019-03-23T08:09:50.360Z,22.95
2019-03-23T08:14:52.989Z,23.12
2019-03-23T08:19:55.539Z,22.96
2019-03-23T08:24:58.186Z,22.97
2019-03-23T08:30:00.830Z,23.30
2019-03-23T08:35:03.998Z,23.48
2019-03-23T08:40:07.268Z,23.33
2019-03-23T08:45:09.870Z,23.53
2019-03-23T08:50:12.491Z,23.68
2019-03-23T08:55:15.155Z,23.72
2019-03-23T09:00:17.891Z,23.45
2019-03-23T09:05:20.612Z,23.46
2019-03-23T09:10:23.254Z,23.50
2019-03-23T09:15:25.902Z,23.90
2019-03-23T09:20:29.514Z,24.01
2019-03-23T09:25:32.523Z,24.11
2019-03-23T09:30:35.119Z,24.20
2019-03-23T09:35:39.445Z,24.47
2019-03-23T09:40:42.280Z,24.53
2019-03-23T09:45:44.901Z,24.50
2019-03-23T09:50:48.569Z,24.53
2019-03-23T09:55:51.219Z,24.36
2019-03-23T10:00:53.861Z,24.39
2019-03-23T10:05:56.475Z,24.08
2019-03-23T10:10:59.093Z,23.99
2019-03-23T10:16:01.682Z,23.92
2019-03-23T10:21:04.334Z,23.82
2019-03-23T10:26:07.072Z,23.81
2019-03-23T10:31:09.645Z,23.69
2019-03-23T10:36:12.390Z,23.71
2019-03-23T10:41:15.051Z,23.72
2019-03-23T10:46:17.696Z,23.63
2019-03-23T10:51:20.333Z,23.57
2019-03-23T10:56:23.052Z,23.48
2019-03-23T11:01:25.701Z,23.47
2019-03-23T11:06:28.323Z,23.52
2019-03-23T11:11:30.999Z,23.49
2019-03-23T11:16:33.671Z,23.47
2019-03-23T11:21:37.607Z,23.58
2019-03-23T11:26:40.197Z,23.54
2019-03-23T11:31:42.829Z,23.52
2019-03-23T11:36:45.408Z,23.56
2019-03-23T11:41:47.986Z,23.49
2019-03-23T11:46:50.550Z,23.51
2019-03-23T11:51:53.024Z,23.54
2019-03-23T11:56:55.652Z,23.50
2019-03-23T12:01:58.340Z,23.45
2019-03-23T12:07:00.962Z,23.41
2019-03-23T12:12:03.761Z,23.36
2019-03-23T12:17:06.383Z,23.30
2019-03-23T12:22:09.073Z,23.09
2019-03-23T12:27:11.731Z,22.89
2019-03-23T12:32:14.474Z,22.77
2019-03-23T12:37:17.110Z,22.69
2019-03-23T12:42:19.741Z,22.65
2019-03-23T12:47:22.356Z,22.61
2019-03-23T12:52:25.010Z,22.47
2019-03-23T12:57:27.557Z,22.36
2019-03-23T13:02:30.189Z,22.25
2019-03-23T13:07:32.839Z,22.04
2019-03-23T13:12:35.482Z,21.75
2019-03-23T13:17:38.186Z,21.51
2019-03-23T13:22:40.894Z,21.40
2019-03-23T13:27:43.668Z,21.31
2019-03-23T13:32:46.242Z,21.17
2019-03-23T13:37:48.871Z,21.11
2019-03-23T13:42:51.507Z,20.97
2019-03-23T13:47:54.973Z,20.90
2019-03-23T13:52:57.908Z,20.78
2019-03-23T13:58:18.769Z,20.59
2019-03-23T14:03:21.339Z,20.37
2019-03-23T14:08:24.015Z,19.99
2019-03-23T14:13:27.841Z,19.73
2019-03-23T14:18:30.600Z,19.61
2019-03-23T14:23:33.309Z,19.48
2019-03-23T14:28:35.900Z,19.22
2019-03-23T14:33:40.164Z,19.02
2019-03-23T14:38:43.062Z,18.89
2019-03-23T14:43:45.639Z,18.74
2019-03-23T14:48:48.267Z,18.48
2019-03-23T14:53:50.874Z,18.29
2019-03-23T14:58:53.598Z,18.00
2019-03-23T15:03:56.259Z,17.78
2019-03-23T15:08:58.871Z,17.63
2019-03-23T15:14:01.484Z,17.35
2019-03-23T15:19:04.095Z,17.28
2019-03-23T15:24:09.194Z,17.15
2019-03-23T15:29:13.036Z,16.96
2019-03-23T15:34:17.009Z,16.78
2019-03-23T15:39:19.659Z,16.64
2019-03-23T15:44:22.289Z,16.34
2019-03-23T15:49:24.995Z,16.17
2019-03-23T15:54:27.637Z,16.09
2019-03-23T15:59:30.238Z,15.87
2019-03-23T16:04:32.932Z,15.67
2019-03-23T16:09:35.653Z,15.53
2019-03-23T16:14:38.289Z,15.46
2019-03-23T16:19:40.835Z,15.41
2019-03-23T16:24:43.283Z,15.34
2019-03-23T16:29:45.891Z,15.29
2019-03-23T16:34:48.476Z,15.12
2019-03-23T16:39:51.090Z,15.04
2019-03-23T16:44:53.714Z,14.99
2019-03-23T16:49:56.356Z,14.93
2019-03-23T16:54:58.963Z,14.83
2019-03-23T17:00:01.587Z,14.73
2019-03-23T17:05:05.988Z,14.66
2019-03-23T17:10:09.095Z,14.56
2019-03-23T17:15:12.861Z,14.43
2019-03-23T17:20:15.521Z,14.45
2019-03-23T17:25:18.152Z,14.33
2019-03-23T17:30:20.920Z,14.27
2019-03-23T17:35:23.530Z,14.20
2019-03-23T17:40:26.154Z,14.05
2019-03-23T17:45:28.797Z,13.99
2019-03-23T17:50:31.424Z,13.98
2019-03-23T17:55:34.248Z,13.93
2019-03-23T18:00:36.924Z,13.89
2019-03-23T18:05:39.654Z,13.80
2019-03-23T18:10:42.261Z,13.75
2019-03-23T18:15:44.863Z,13.66
2019-03-23T18:20:47.477Z,13.60
2019-03-23T18:25:50.961Z,13.51
2019-03-23T18:30:53.463Z,13.49
2019-03-23T18:35:56.072Z,13.42
2019-03-23T18:40:58.673Z,13.38
2019-03-23T18:46:01.305Z,13.35
2019-03-23T18:51:04.077Z,13.32
2019-03-23T18:56:06.744Z,13.30
2019-03-23T19:01:09.235Z,13.29
2019-03-23T19:06:11.864Z,13.25
2019-03-23T19:11:15.095Z,13.26
2019-03-23T19:16:17.746Z,13.26
2019-03-23T19:21:20.377Z,13.23
2019-03-23T19:26:23.027Z,13.20
2019-03-23T19:31:25.707Z,13.15
2019-03-23T19:36:28.292Z,13.13
2019-03-23T19:41:30.919Z,13.07
2019-03-23T19:46:35.926Z,13.06
2019-03-23T19:51:38.683Z,13.04
2019-03-23T19:56:41.279Z,13.01
2019-03-23T20:01:44.005Z,12.93
2019-03-23T20:06:46.686Z,12.93
2019-03-23T20:11:49.319Z,12.91
2019-03-23T20:16:52.048Z,12.93
2019-03-23T20:21:54.668Z,12.93
2019-03-23T20:26:57.364Z,12.91
2019-03-23T20:32:00.007Z,12.89
2019-03-23T20:37:02.878Z,12.85
2019-03-23T20:42:05.510Z,12.87
2019-03-23T20:47:08.287Z,12.86
2019-03-23T20:52:10.989Z,12.82
2019-03-23T20:57:23.457Z,12.76
2019-03-23T21:02:18.267Z,12.72
2019-03-23T21:07:20.900Z,12.65
2019-03-23T21:12:23.525Z,12.67
2019-03-23T21:17:28.186Z,12.62
2019-03-23T21:22:30.922Z,12.64
2019-03-23T21:27:33.788Z,12.68
2019-03-23T21:32:36.359Z,12.66
2019-03-23T21:37:39.050Z,12.69
2019-03-23T21:42:41.765Z,12.69
2019-03-23T21:47:44.359Z,12.79
2019-03-23T21:52:46.977Z,12.84
2019-03-23T21:57:49.787Z,12.88
2019-03-23T22:02:52.406Z,12.93
2019-03-23T22:07:55.093Z,12.96
2019-03-23T22:12:57.860Z,12.99
2019-03-23T22:18:00.489Z,12.99
2019-03-23T22:23:03.379Z,12.95
2019-03-23T22:28:06.031Z,12.88
2019-03-23T22:33:09.507Z,12.88
2019-03-23T22:38:12.222Z,12.88
2019-03-23T22:43:14.798Z,12.89
2019-03-23T22:48:17.453Z,12.94
2019-03-23T22:53:21.778Z,12.94
2019-03-23T22:58:24.228Z,12.98
2019-03-23T23:03:26.989Z,13.00
2019-03-23T23:08:29.710Z,12.99
2019-03-23T23:13:32.313Z,13.03
2019-03-23T23:18:34.905Z,13.09
2019-03-23T23:23:37.588Z,13.12
2019-03-23T23:28:41.436Z,13.16
2019-03-23T23:33:45.309Z,13.15
2019-03-23T23:38:47.894Z,13.18
2019-03-23T23:43:52.654Z,13.19
2019-03-23T23:48:55.338Z,13.24
2019-03-23T23:54:00.204Z,13.21
2019-03-23T23:59:02.832Z,13.23
